Time;durP1;ratioP1;P1;durP2;ratioP2;P2;SDS_P1;SDS_P2;PMS_P1;PMS_P2;Temp;Humidity;BMP_temperature;BMP_pressure;BME280_temperature;BME280_humidity;BME280_pressure;Samples;Min_cycle;Max_cycle;Signal;HPM_P1;HPM_P2
2023/11/24 00:04:55;;;;;;;1999.90;999.90;;;;;;;14.18;68.12;101305.38;10398657;28;20132;-71
2023/11/24 00:09:57;;;;;;;1999.90;999.90;;;;;;;14.11;67.13;101313.66;10416144;28;20053;-71
2023/11/24 00:15:03;;;;;;;1999.90;999.90;;;;;;;14.13;67.10;101308.31;10415937;28;20057;-71
2023/11/24 00:20:10;;;;;;;1999.90;999.90;;;;;;;14.65;64.91;101286.47;10414563;28;20485;-71
2023/11/24 00:25:13;;;;;;;1999.90;999.90;;;;;;;14.55;64.38;101287.16;10414416;28;20504;-71
2023/11/24 00:30:15;;;;;;;1999.90;999.90;;;;;;;14.47;64.09;101283.25;10415323;28;20053;-71
2023/11/24 00:35:20;;;;;;;1999.90;999.90;;;;;;;14.56;64.70;101294.09;10414155;28;20132;-71
2023/11/24 00:40:23;;;;;;;1999.90;999.90;;;;;;;13.98;65.61;101298.75;10415152;28;20049;-72
2023/11/24 00:45:26;;;;;;;1999.90;999.90;;;;;;;14.71;63.65;101287.88;10415210;28;20128;-72
2023/11/24 00:50:28;;;;;;;1999.90;999.90;;;;;;;13.91;64.41;101285.13;10413551;28;20412;-71
2023/11/24 00:55:31;;;;;;;1999.90;999.90;;;;;;;13.62;64.84;101284.34;10417032;28;20059;-72
2023/11/24 01:00:33;;;;;;;1999.90;999.90;;;;;;;13.99;64.31;101276.75;10423489;28;20144;-72
2023/11/24 01:05:36;;;;;;;1999.90;999.90;;;;;;;13.38;67.17;101259.47;10421868;28;20124;-71
2023/11/24 01:10:38;;;;;;;1999.90;999.90;;;;;;;13.31;65.80;101260.75;10421738;28;20411;-71
2023/11/24 01:15:41;;;;;;;1999.90;999.90;;;;;;;14.39;63.88;101245.16;10421713;28;20052;-71
2023/11/24 01:20:44;;;;;;;1999.90;999.90;;;;;;;13.57;66.13;101239.91;10422643;28;20128;-71
2023/11/24 01:25:47;;;;;;;1999.90;999.90;;;;;;;13.56;66.11;101240.84;10422868;28;20057;-71
2023/11/24 01:30:49;;;;;;;1999.90;999.90;;;;;;;13.55;65.43;101236.53;10421213;28;20064;-71
2023/11/24 01:35:55;;;;;;;1999.90;999.90;;;;;;;13.84;65.12;101234.69;10422131;28;20147;-72
2023/11/24 01:40:58;;;;;;;1999.90;999.90;;;;;;;13.44;65.82;101244.25;10422217;28;20485;-72
2023/11/24 01:46:00;;;;;;;1999.90;999.90;;;;;;;13.38;64.51;101243.69;10422111;28;20072;-72
2023/11/24 01:51:06;;;;;;;1999.90;999.90;;;;;;;13.15;65.45;101244.22;10421280;28;20057;-72
2023/11/24 01:56:10;;;;;;;1999.90;999.90;;;;;;;13.50;64.30;101257.88;10420262;28;20133;-72
2023/11/24 02:01:13;;;;;;;1999.90;999.90;;;;;;;14.00;64.46;101257.38;10419744;28;20503;-72
2023/11/24 02:06:16;;;;;;;1999.90;999.90;;;;;;;13.19;65.53;101246.56;10419005;28;20052;-71
2023/11/24 02:11:18;;;;;;;1999.90;999.90;;;;;;;13.23;63.99;101234.09;10419249;28;20389;-72
2023/11/24 02:16:21;;;;;;;1999.90;999.90;;;;;;;13.41;63.72;101218.97;10420523;28;20059;-72
2023/11/24 02:21:23;;;;;;;1999.90;999.90;;;;;;;12.60;65.04;101215.06;10419006;28;20046;-72
2023/11/24 02:26:26;;;;;;;1999.90;999.90;;;;;;;13.20;63.78;101214.09;10419160;28;20073;-72
2023/11/24 02:31:28;;;;;;;1999.90;999.90;;;;;;;13.14;63.57;101206.56;10420018;28;20053;-72
2023/11/24 02:36:32;;;;;;;1999.90;999.90;;;;;;;12.82;64.22;101198.84;10419639;28;20431;-72
2023/11/24 02:41:35;;;;;;;1999.90;999.90;;;;;;;13.09;64.68;101199.91;10419508;28;20504;-72
2023/11/24 02:46:38;;;;;;;1999.90;999.90;;;;;;;13.28;64.75;101192.59;10418333;28;20048;-72
2023/11/24 02:51:41;;;;;;;1999.90;999.90;;;;;;;13.28;64.43;101189.09;10417828;28;20062;-72
2023/11/24 02:56:43;;;;;;;1999.90;999.90;;;;;;;12.61;65.74;101176.53;10419002;28;20049;-72
2023/11/24 03:01:46;;;;;;;1999.90;999.90;;;;;;;12.80;64.78;101166.59;10418657;28;20115;-72
2023/11/24 03:06:48;;;;;;;1999.90;999.90;;;;;;;13.41;63.94;101155.84;10418514;28;20046;-72
2023/11/24 03:11:52;;;;;;;1999.90;999.90;;;;;;;12.75;64.24;101158.13;10418432;28;20057;-72
2023/11/24 03:16:55;;;;;;;1999.90;999.90;;;;;;;12.80;63.06;101148.19;10416849;28;20045;-72
2023/11/24 03:21:58;;;;;;;1999.90;999.90;;;;;;;12.51;63.43;101141.22;10417577;28;20137;-72
2023/11/24 03:27:00;;;;;;;1999.90;999.90;;;;;;;12.52;64.02;101140.28;10416456;28;20042;-72
2023/11/24 03:32:02;;;;;;;1999.90;999.90;;;;;;;12.87;62.94;101134.69;10417671;28;20052;-72
2023/11/24 03:37:05;;;;;;;1999.90;999.90;;;;;;;13.00;62.99;101128.56;10416138;28;20047;-72
2023/11/24 03:42:08;;;;;;;1999.90;999.90;;;;;;;12.53;62.62;101129.69;10416153;28;20060;-72
2023/11/24 03:47:10;;;;;;;1999.90;999.90;;;;;;;12.89;61.44;101133.63;10415830;28;20046;-72
2023/11/24 03:52:12;;;;;;;1999.90;999.90;;;;;;;12.29;62.48;101139.91;10415430;28;20453;-72
2023/11/24 03:57:15;;;;;;;1999.90;999.90;;;;;;;12.74;63.24;101142.47;10415711;28;20046;-72
2023/11/24 04:02:18;;;;;;;1999.90;999.90;;;;;;;12.34;64.43;101160.59;10415337;28;20049;-72
2023/11/24 04:07:20;;;;;;;1999.90;999.90;;;;;;;12.23;65.86;101164.72;10415203;28;20050;-72
2023/11/24 04:12:23;;;;;;;1999.90;999.90;;;;;;;12.33;66.33;101159.78;10416044;28;20053;-72
2023/11/24 04:17:25;;;;;;;1999.90;999.90;;;;;;;12.72;65.59;101153.06;10415847;28;20045;-72
2023/11/24 04:22:27;;;;;;;1999.90;999.90;;;;;;;12.48;66.13;101141.44;10415093;28;20053;-72
2023/11/24 04:27:30;;;;;;;1999.90;999.90;;;;;;;12.47;66.05;101134.47;10415481;28;20400;-72
2023/11/24 04:32:33;;;;;;;1999.90;999.90;;;;;;;12.84;66.58;101138.34;10414899;28;20132;-72
2023/11/24 04:37:35;;;;;;;1999.90;999.90;;;;;;;12.30;67.25;101122.34;10415441;28;20046;-72
2023/11/24 04:42:38;;;;;;;1999.90;999.90;;;;;;;12.13;65.61;101118.09;10415199;28;20045;-72
2023/11/24 04:47:41;;;;;;;1999.90;999.90;;;;;;;12.59;64.56;101089.06;10415093;28;20111;-72
2023/11/24 04:52:43;;;;;;;1999.90;999.90;;;;;;;12.50;66.39;101098.38;10414899;28;20053;-72
2023/11/24 04:57:49;;;;;;;1999.90;999.90;;;;;;;12.47;64.61;101087.22;10413961;28;20056;-72
2023/11/24 05:02:52;;;;;;;1999.90;999.90;;;;;;;12.77;64.35;101089.72;10415294;28;20057;-72
2023/11/24 05:07:54;;;;;;;1999.90;999.90;;;;;;;12.41;67.64;101086.66;10414755;28;20049;-72
2023/11/24 05:12:57;;;;;;;1999.90;999.90;;;;;;;11.36;69.01;101085.75;10414688;28;20065;-72
2023/11/24 05:18:01;;;;;;;1999.90;999.90;;;;;;;12.12;67.54;101079.66;10414699;28;20053;-72
2023/11/24 05:23:04;;;;;;;1999.90;999.90;;;;;;;12.27;64.74;101081.38;10413399;28;20056;-72
2023/11/24 05:28:06;;;;;;;1999.90;999.90;;;;;;;11.98;66.62;101093.59;10414196;28;20080;-73
2023/11/24 05:33:09;;;;;;;1999.90;999.90;;;;;;;11.84;64.47;101076.84;10414422;28;20084;-72
2023/11/24 05:38:11;;;;;;;1999.90;999.90;;;;;;;12.07;64.28;101082.59;10414142;28;20053;-72
2023/11/24 05:43:13;;;;;;;1999.90;999.90;;;;;;;11.97;64.92;101086.66;10418378;28;20567;-72
2023/11/24 05:48:16;;;;;;;1999.90;999.90;;;;;;;11.66;64.80;101085.78;10421656;28;20048;-72
2023/11/24 05:53:19;;;;;;;1999.90;999.90;;;;;;;11.56;67.41;101076.75;10421193;28;20068;-71
2023/11/24 05:58:21;;;;;;;1999.90;999.90;;;;;;;11.61;69.07;101093.06;10421327;28;20063;-72
2023/11/24 06:03:24;;;;;;;1999.90;999.90;;;;;;;11.53;70.46;101078.63;10421019;28;20054;-72
2023/11/24 06:08:27;;;;;;;1999.90;999.90;;;;;;;11.50;70.05;101078.78;10420883;28;20045;-72
2023/11/24 06:13:29;;;;;;;1999.90;999.90;;;;;;;12.04;70.74;101085.38;10419722;28;20136;-72
2023/11/24 06:18:32;;;;;;;1999.90;999.90;;;;;;;11.45;71.40;101067.72;10419287;28;20497;-72
2023/11/24 06:23:34;;;;;;;1999.90;999.90;;;;;;;11.27;71.54;101072.22;10420224;28;20554;-72
2023/11/24 06:28:37;;;;;;;1999.90;999.90;;;;;;;11.43;70.42;101071.34;10419907;28;20506;-73
2023/11/24 06:33:39;;;;;;;1999.90;999.90;;;;;;;11.84;68.89;101058.50;10420048;28;20049;-72
2023/11/24 06:38:42;;;;;;;1999.90;999.90;;;;;;;11.87;69.84;101047.81;10419538;28;20504;-72
2023/11/24 06:43:44;;;;;;;1999.90;999.90;;;;;;;11.70;68.85;101056.69;10419757;28;20053;-72
2023/11/24 06:48:48;;;;;;;1999.90;999.90;;;;;;;11.66;69.50;101062.19;10418333;28;20045;-72
2023/11/24 06:53:51;;;;;;;1999.90;999.90;;;;;;;12.19;68.05;101076.59;10418057;28;20058;-72
2023/11/24 06:58:54;;;;;;;1999.90;999.90;;;;;;;13.01;65.91;101077.69;10418397;28;20045;-73
2023/11/24 07:03:59;;;;;;;1999.90;999.90;;;;;;;12.69;65.51;101084.94;10418658;28;20107;-73
2023/11/24 07:09:03;;;;;;;1999.90;999.90;;;;;;;11.97;69.04;101089.28;10417523;28;20099;-73
2023/11/24 07:14:06;;;;;;;1999.90;999.90;;;;;;;11.55;69.82;101060.19;10418138;28;20053;-73
2023/11/24 07:19:08;;;;;;;1999.90;999.90;;;;;;;11.19;70.83;101063.94;10417110;28;20073;-73
2023/11/24 07:24:11;;;;;;;1999.90;999.90;;;;;;;11.40;70.27;101058.41;10416815;28;20049;-72
2023/11/24 07:29:14;;;;;;;1999.90;999.90;;;;;;;11.19;69.70;101071.81;10416447;28;20053;-72
2023/11/24 07:34:17;;;;;;;1999.90;999.90;;;;;;;10.99;68.74;101054.56;10417383;28;20385;-73
2023/11/24 07:39:20;;;;;;;1999.90;999.90;;;;;;;11.89;67.35;101045.94;10417280;28;20080;-72
2023/11/24 07:44:23;;;;;;;1999.90;999.90;;;;;;;10.95;69.31;101050.44;10416154;28;20539;-72
2023/11/24 07:49:26;;;;;;;1999.90;999.90;;;;;;;10.93;69.44;101053.13;10415796;28;20220;-72
2023/11/24 07:54:29;;;;;;;1999.90;999.90;;;;;;;11.50;67.49;101067.47;10416644;28;20527;-72
2023/11/24 07:59:31;;;;;;;1999.90;999.90;;;;;;;11.40;68.24;101054.03;10416856;28;20053;-72
2023/11/24 08:04:33;;;;;;;1999.90;999.90;;;;;;;10.97;68.82;101036.31;10416217;28;20049;-72
2023/11/24 08:09:36;;;;;;;1999.90;999.90;;;;;;;10.55;70.17;101027.22;10416115;28;20451;-73
2023/11/24 08:14:39;;;;;;;1999.90;999.90;;;;;;;10.96;68.10;101029.38;10415895;28;20440;-72
2023/11/24 08:19:41;;;;;;;1999.90;999.90;;;;;;;11.45;67.93;101022.31;10414700;28;20492;-72
2023/11/24 08:24:44;;;;;;;1999.90;999.90;;;;;;;11.59;65.87;101013.66;10415670;28;20057;-72
2023/11/24 08:29:46;;;;;;;1999.90;999.90;;;;;;;11.00;67.95;101018.75;10415069;28;20053;-72
2023/11/24 08:34:49;;;;;;;1999.90;999.90;;;;;;;10.66;69.34;101031.03;10414272;28;20052;-72
2023/11/24 08:39:51;;;;;;;1999.90;999.90;;;;;;;11.15;69.83;101023.97;10415295;28;20057;-72
2023/11/24 08:44:53;;;;;;;1999.90;999.90;;;;;;;10.96;71.37;101021.53;10414023;28;20480;-72
2023/11/24 08:49:56;;;;;;;1999.90;999.90;;;;;;;11.48;69.97;101032.59;10414939;28;20053;-72
2023/11/24 08:55:02;;;;;;;1999.90;999.90;;;;;;;11.32;71.35;101030.03;10414826;28;20115;-72
2023/11/24 09:00:06;;;;;;;1999.90;999.90;;;;;;;11.31;69.84;101028.34;10414077;28;20053;-73
2023/11/24 09:05:09;;;;;;;1999.90;999.90;;;;;;;10.72;71.76;101012.38;10413522;28;20124;-73
2023/11/24 09:10:12;;;;;;;1999.90;999.90;;;;;;;11.58;70.47;101017.19;10414293;28;20140;-73
2023/11/24 09:15:14;;;;;;;1999.90;999.90;;;;;;;12.27;68.01;101005.22;10413572;28;20049;-72
2023/11/24 09:20:18;;;;;;;1999.90;999.90;;;;;;;13.27;63.48;101000.72;10421530;28;20060;-73
2023/11/24 09:25:21;;;;;;;1999.90;999.90;;;;;;;11.82;66.88;101007.91;10421350;28;20129;-73
2023/11/24 09:30:24;;;;;;;1999.90;999.90;;;;;;;11.92;68.32;100983.75;10420655;28;20485;-72
2023/11/24 09:35:26;;;;;;;1999.90;999.90;;;;;;;11.63;69.08;100975.81;10421179;28;20053;-72
2023/11/24 09:40:30;;;;;;;1999.90;999.90;;;;;;;11.80;66.77;100986.16;10420857;28;20059;-72
2023/11/24 09:45:33;;;;;;;1999.90;999.90;;;;;;;11.63;66.88;100976.69;10403658;28;20132;-72
2023/11/24 09:50:37;;;;;;;1999.90;999.90;;;;;;;11.77;65.24;100970.59;10420149;28;20085;-72
2023/11/24 09:55:41;;;;;;;1999.90;999.90;;;;;;;12.92;63.26;100967.88;10421523;28;20056;-72
2023/11/24 10:00:43;;;;;;;1999.90;999.90;;;;;;;14.05;59.43;100970.97;10421185;28;20056;-72
2023/11/24 10:05:47;;;;;;;1999.90;999.90;;;;;;;12.00;64.03;100953.53;10420857;28;20055;-71
2023/11/24 10:10:49;;;;;;;1999.90;999.90;;;;;;;13.00;63.21;100968.25;10419795;28;20072;-72
2023/11/24 10:15:52;;;;;;;1999.90;999.90;;;;;;;12.56;64.77;100973.72;10419356;28;20124;-72
2023/11/24 10:20:55;;;;;;;1999.90;999.90;;;;;;;11.80;65.11;100975.66;10419192;28;20485;-72
2023/11/24 10:25:58;;;;;;;1999.90;999.90;;;;;;;11.88;65.07;100981.31;10419942;28;20396;-72
2023/11/24 10:31:04;;;;;;;1999.90;999.90;;;;;;;11.68;67.86;100968.50;10417830;28;20054;-72
2023/11/24 10:36:08;;;;;;;1999.90;999.90;;;;;;;9.98;73.29;100988.31;10419907;28;20064;-73
2023/11/24 10:41:22;;;;;;;1999.90;999.90;;;;;;;11.46;72.75;100961.91;10418473;28;20045;-74
2023/11/24 10:46:27;;;;;;;1999.90;999.90;;;;;;;11.06;69.86;100956.38;10418439;28;20077;-74
2023/11/24 10:51:58;;;;;;;1999.90;999.90;;;;;;;12.16;69.87;100949.94;10417824;28;20050;-73
2023/11/24 10:57:02;;;;;;;1999.90;999.90;;;;;;;12.06;68.46;100933.91;10395425;28;20049;-74
2023/11/24 11:02:08;;;;;;;1999.90;999.90;;;;;;;12.66;66.88;100931.94;10418706;28;20504;-74
2023/11/24 11:07:41;;;;;;;1999.90;999.90;;;;;;;12.11;67.42;100942.34;10409383;23;20056;-74
2023/11/24 11:12:51;;;;;;;1999.90;999.90;;;;;;;12.21;67.48;100940.00;10376648;28;20141;-75
2023/11/24 11:18:10;;;;;;;1999.90;999.90;;;;;;;12.83;66.59;100915.94;10361058;28;20520;-74
2023/11/24 11:23:16;;;;;;;1999.90;999.90;;;;;;;12.32;67.68;100923.56;10360461;28;20394;-74
2023/11/24 11:28:19;;;;;;;1999.90;999.90;;;;;;;13.27;64.81;100906.06;10375635;28;20054;-74
2023/11/24 11:33:22;;;;;;;1999.90;999.90;;;;;;;12.42;67.49;100898.41;10376657;28;20412;-74
2023/11/24 11:38:43;;;;;;;1999.90;999.90;;;;;;;12.93;66.19;100898.63;10375154;28;20048;-74
2023/11/24 11:43:53;;;;;;;1999.90;999.90;;;;;;;12.19;66.88;100884.97;10375345;28;20390;-74
2023/11/24 11:48:58;;;;;;;1999.90;999.90;;;;;;;12.30;66.16;100881.66;10376196;28;20073;-74
2023/11/24 11:54:02;;;;;;;1999.90;999.90;;;;;;;12.12;66.78;100877.56;10358670;28;20132;-74
2023/11/24 11:59:05;;;;;;;1999.90;999.90;;;;;;;11.05;66.73;100857.72;10359042;28;20073;-74
2023/11/24 12:04:08;;;;;;;1999.90;999.90;;;;;;;11.71;65.68;100839.81;10374402;28;20125;-74
2023/11/24 12:09:17;;;;;;;1999.90;999.90;;;;;;;11.95;64.99;100847.97;10375632;28;20105;-74
2023/11/24 12:14:20;;;;;;;1999.90;999.90;;;;;;;11.25;65.41;100853.09;10374186;28;20129;-74
2023/11/24 12:19:29;;;;;;;1999.90;999.90;;;;;;;11.77;64.58;100851.69;10374622;28;20050;-74
2023/11/24 12:24:32;;;;;;;1999.90;999.90;;;;;;;11.91;64.24;100838.63;10375220;28;20485;-74
2023/11/24 12:29:36;;;;;;;1999.90;999.90;;;;;;;11.60;65.10;100827.38;10373468;28;20046;-73
2023/11/24 12:34:43;;;;;;;1999.90;999.90;;;;;;;11.06;65.49;100814.88;10373669;28;20049;-72
2023/11/24 12:39:46;;;;;;;1999.90;999.90;;;;;;;11.92;63.18;100814.09;10373836;28;20050;-68
2023/11/24 12:44:50;;;;;;;1999.90;999.90;;;;;;;11.38;61.87;100787.66;10372571;28;20045;-73
2023/11/24 12:50:12;;;;;;;1999.90;999.90;;;;;;;11.45;63.27;100791.63;10372947;28;20048;-73
2023/11/24 12:55:16;;;;;;;1999.90;999.90;;;;;;;12.10;61.42;100788.44;10358103;28;20057;-73
2023/11/24 13:00:26;;;;;;;1999.90;999.90;;;;;;;13.11;60.52;100783.56;10374162;28;20049;-73
2023/11/24 13:05:29;;;;;;;1999.90;999.90;;;;;;;12.13;61.61;100779.53;10389966;28;20056;-75
2023/11/24 13:10:33;;;;;;;1999.90;999.90;;;;;;;11.89;62.04;100791.47;10377502;28;20089;-73
2023/11/24 13:15:35;;;;;;;1999.90;999.90;;;;;;;11.53;61.99;100786.72;10376745;28;20082;-74
2023/11/24 13:20:38;;;;;;;1999.90;999.90;;;;;;;11.98;62.39;100786.59;10343311;28;20046;-73
2023/11/24 13:25:41;;;;;;;1999.90;999.90;;;;;;;11.89;62.64;100788.84;10348853;28;20085;-73
2023/11/24 13:30:44;;;;;;;1999.90;999.90;;;;;;;12.03;62.52;100797.66;10361016;28;20050;-73
2023/11/24 13:35:46;;;;;;;1999.90;999.90;;;;;;;12.44;60.20;100796.78;10357554;28;20096;-73
2023/11/24 13:40:48;;;;;;;1999.90;999.90;;;;;;;12.16;60.57;100798.56;10384443;28;20046;-73
2023/11/24 13:45:51;;;;;;;1999.90;999.90;;;;;;;11.92;60.96;100814.09;10367482;28;20068;-73
2023/11/24 13:50:56;;;;;;;1999.90;999.90;;;;;;;10.88;62.32;100808.94;10366379;28;20064;-74
2023/11/24 13:56:00;;;;;;;1999.90;999.90;;;;;;;11.89;62.05;100795.88;10354597;28;20503;-73
2023/11/24 14:01:03;;;;;;;1999.90;999.90;;;;;;;11.48;61.36;100789.63;10339117;28;20046;-73
2023/11/24 14:06:06;;;;;;;1999.90;999.90;;;;;;;11.47;61.82;100793.19;10360179;28;20038;-72
2023/11/24 14:11:08;;;;;;;1999.90;999.90;;;;;;;12.11;60.60;100795.38;10376799;28;20049;-72
2023/11/24 14:16:12;;;;;;;1999.90;999.90;;;;;;;11.76;60.70;100780.03;10402530;28;20042;-75
2023/11/24 14:21:14;;;;;;;1999.90;999.90;;;;;;;11.40;61.86;100793.63;10376529;28;20506;-75
2023/11/24 14:26:18;;;;;;;1999.90;999.90;;;;;;;11.58;60.52;100773.31;10374303;28;20042;-75
2023/11/24 14:31:20;;;;;;;1999.90;999.90;;;;;;;11.23;59.97;100755.34;10373179;28;20052;-75
2023/11/24 14:36:24;;;;;;;1999.90;999.90;;;;;;;11.13;62.06;100762.97;10374544;28;20527;-74
2023/11/24 14:41:30;;;;;;;1999.90;999.90;;;;;;;11.88;62.16;100752.19;10376787;28;20053;-74
2023/11/24 14:46:32;;;;;;;1999.90;999.90;;;;;;;11.08;61.65;100757.97;10375790;28;20088;-72
2023/11/24 14:51:38;;;;;;;1999.90;999.90;;;;;;;11.37;63.34;100757.16;10376351;28;20060;-73
2023/11/24 14:56:43;;;;;;;1999.90;999.90;;;;;;;11.21;62.66;100746.75;10375962;28;20124;-73
2023/11/24 15:01:45;;;;;;;1999.90;999.90;;;;;;;10.97;63.92;100737.66;10375966;28;20536;-73
2023/11/24 15:06:51;;;;;;;1999.90;999.90;;;;;;;11.31;62.28;100727.75;10336049;28;1157825;-73
2023/11/24 15:11:54;;;;;;;1999.90;999.90;;;;;;;11.61;61.74;100760.88;10377434;28;20057;-73
2023/11/24 15:17:05;;;;;;;1999.90;999.90;;;;;;;11.89;61.88;100809.81;10376942;28;20050;-73
2023/11/24 15:22:16;;;;;;;1999.90;999.90;;;;;;;9.12;68.91;100830.69;10375918;28;20526;-74
2023/11/24 15:27:22;;;;;;;1999.90;999.90;;;;;;;10.21;67.38;100821.44;10377169;28;20042;-74
2023/11/24 15:32:24;;;;;;;1999.90;999.90;;;;;;;10.50;66.75;100805.91;10376815;28;20056;-75
2023/11/24 15:37:26;;;;;;;1999.90;999.90;;;;;;;10.59;67.44;100802.75;10376615;28;20042;-75
2023/11/24 15:42:31;;;;;;;1999.90;999.90;;;;;;;9.91;65.65;100789.97;10376457;28;20100;-74
2023/11/24 15:47:34;;;;;;;1999.90;999.90;;;;;;;10.92;64.59;100794.72;10376168;28;20485;-74
2023/11/24 15:52:44;;;;;;;1999.90;999.90;;;;;;;10.86;64.80;100794.22;10376207;28;20157;-74
2023/11/24 15:57:46;;;;;;;1999.90;999.90;;;;;;;9.61;66.40;100798.53;10374837;28;20126;-74
2023/11/24 16:02:48;;;;;;;1999.90;999.90;;;;;;;9.76;67.18;100795.09;10375906;28;20057;-74
2023/11/24 16:07:56;;;;;;;1999.90;999.90;;;;;;;10.54;66.81;100804.78;10375013;28;20390;-74
2023/11/24 16:13:03;;;;;;;1999.90;999.90;;;;;;;9.94;68.51;100814.19;10375825;28;20137;-75
2023/11/24 16:18:07;;;;;;;1999.90;999.90;;;;;;;9.72;70.46;100811.88;10375356;28;20053;-74
2023/11/24 16:23:11;;;;;;;1999.90;999.90;;;;;;;10.23;70.04;100814.34;10374992;28;20417;-75
2023/11/24 16:28:13;;;;;;;1999.90;999.90;;;;;;;10.28;67.75;100814.09;10374102;28;20072;-74
2023/11/24 16:33:16;;;;;;;1999.90;999.90;;;;;;;10.81;68.60;100820.72;10374825;28;20056;-75
2023/11/24 16:38:18;;;;;;;1999.90;999.90;;;;;;;9.61;70.90;100801.16;10374556;28;20386;-74
2023/11/24 16:43:21;;;;;;;1999.90;999.90;;;;;;;9.88;71.42;100792.75;10373368;28;20049;-74
2023/11/24 16:48:24;;;;;;;1999.90;999.90;;;;;;;9.51;71.77;100784.28;10357222;28;20052;-74
2023/11/24 16:53:27;;;;;;;1999.90;999.90;;;;;;;10.15;69.87;100782.53;10373306;28;20052;-74
2023/11/24 16:58:29;;;;;;;1999.90;999.90;;;;;;;9.91;69.23;100793.41;10374161;28;20058;-75
2023/11/24 17:03:36;;;;;;;1999.90;999.90;;;;;;;9.84;71.16;100798.13;10374097;28;20405;-74
2023/11/24 17:08:39;;;;;;;1999.90;999.90;;;;;;;9.23;72.02;100786.56;10373719;28;20448;-74
2023/11/24 17:13:41;;;;;;;1999.90;999.90;;;;;;;9.62;71.48;100787.16;10373476;28;20058;-74
2023/11/24 17:18:44;;;;;;;1999.90;999.90;;;;;;;9.39;71.74;100772.69;10373755;28;20493;-74
2023/11/24 17:23:46;;;;;;;1999.90;999.90;;;;;;;9.33;70.75;100773.00;10373871;28;20054;-74
2023/11/24 17:28:52;;;;;;;1999.90;999.90;;;;;;;9.45;71.07;100785.44;10373629;28;20048;-74
2023/11/24 17:33:56;;;;;;;1999.90;999.90;;;;;;;9.51;70.57;100782.50;10372411;28;20440;-74
2023/11/24 17:38:59;;;;;;;1999.90;999.90;;;;;;;9.53;68.97;100775.44;10377203;28;20055;-74
2023/11/24 17:44:01;;;;;;;1999.90;999.90;;;;;;;10.12;68.24;100773.09;10380803;28;20077;-74
2023/11/24 17:49:04;;;;;;;1999.90;999.90;;;;;;;9.91;67.80;100769.06;10379495;28;20088;-74
2023/11/24 17:54:07;;;;;;;1999.90;999.90;;;;;;;10.03;68.64;100786.66;10379840;28;20137;-74
2023/11/24 17:59:09;;;;;;;1999.90;999.90;;;;;;;9.56;68.96;100782.25;10380221;28;20052;-74
2023/11/24 18:04:12;;;;;;;1999.90;999.90;;;;;;;9.72;70.05;100758.75;10380290;28;20396;-74
2023/11/24 18:09:15;;;;;;;1999.90;999.90;;;;;;;10.01;68.48;100768.44;10378666;28;20493;-73
2023/11/24 18:14:19;;;;;;;1999.90;999.90;;;;;;;9.64;69.62;100756.56;10379891;28;20378;-73
2023/11/24 18:19:22;;;;;;;1999.90;999.90;;;;;;;10.12;68.03;100759.16;10379605;28;20056;-73
2023/11/24 18:24:25;;;;;;;1999.90;999.90;;;;;;;9.65;68.96;100747.78;10379585;28;20488;-73
2023/11/24 18:29:27;;;;;;;1999.90;999.90;;;;;;;9.97;67.63;100748.63;10379358;28;20120;-74
2023/11/24 18:34:29;;;;;;;1999.90;999.90;;;;;;;9.64;68.58;100754.78;10379074;28;20560;-74
2023/11/24 18:39:32;;;;;;;1999.90;999.90;;;;;;;10.09;68.58;100760.19;10379233;28;20097;-73
2023/11/24 18:44:34;;;;;;;1999.90;999.90;;;;;;;9.91;68.56;100750.75;10378637;28;20108;-74
2023/11/24 18:49:37;;;;;;;1999.90;999.90;;;;;;;10.01;68.30;100746.69;10377710;28;20050;-74
2023/11/24 18:54:39;;;;;;;1999.90;999.90;;;;;;;10.47;66.79;100759.78;10378346;28;20138;-74
2023/11/24 18:59:46;;;;;;;1999.90;999.90;;;;;;;10.02;68.44;100762.28;10378466;28;20105;-74
2023/11/24 19:04:49;;;;;;;1999.90;999.90;;;;;;;9.96;65.83;100761.78;10377783;28;20080;-74
2023/11/24 19:09:52;;;;;;;1999.90;999.90;;;;;;;10.15;65.47;100775.50;10377671;28;20132;-74
2023/11/24 19:14:55;;;;;;;1999.90;999.90;;;;;;;10.52;63.09;100806.66;10377905;28;20054;-74
2023/11/24 19:19:57;;;;;;;1999.90;999.90;;;;;;;11.44;61.18;100924.44;10376461;28;20046;-74
2023/11/24 19:24:59;;;;;;;1999.90;999.90;;;;;;;7.46;70.09;100964.34;10377081;28;20401;-73
2023/11/24 19:30:02;;;;;;;1999.90;999.90;;;;;;;8.03;72.71;100940.22;10376983;28;20049;-74
2023/11/24 19:35:05;;;;;;;1999.90;999.90;;;;;;;8.31;70.08;100918.97;10376727;28;20056;-75
2023/11/24 19:40:09;;;;;;;1999.90;999.90;;;;;;;8.15;72.30;100908.38;10376859;28;20124;-75
2023/11/24 19:45:12;;;;;;;1999.90;999.90;;;;;;;8.93;70.05;100834.22;10376475;28;20108;-74
2023/11/24 19:50:15;;;;;;;1999.90;999.90;;;;;;;8.70;69.06;100860.59;10376345;28;20054;-74
2023/11/24 19:55:17;;;;;;;1999.90;999.90;;;;;;;8.95;69.04;100880.31;10375896;28;20566;-74
2023/11/24 20:00:20;;;;;;;1999.90;999.90;;;;;;;9.26;69.48;100900.50;10375897;28;20053;-74
2023/11/24 20:05:22;;;;;;;1999.90;999.90;;;;;;;8.41;72.99;100914.16;10374439;28;20519;-74
2023/11/24 20:10:25;;;;;;;1999.90;999.90;;;;;;;8.88;72.58;100884.97;10375171;28;20050;-74
2023/11/24 20:15:27;;;;;;;1999.90;999.90;;;;;;;8.95;71.90;100880.31;10375477;28;20089;-74
2023/11/24 20:20:30;;;;;;;1999.90;999.90;;;;;;;8.77;70.87;100887.25;10375126;28;20053;-74
2023/11/24 20:25:33;;;;;;;1999.90;999.90;;;;;;;10.09;67.94;100895.38;10375256;28;20046;-74
2023/11/24 20:30:35;;;;;;;1999.90;999.90;;;;;;;9.33;67.83;100914.97;10374237;28;20054;-74
2023/11/24 20:35:37;;;;;;;1999.90;999.90;;;;;;;9.64;68.33;100906.41;10374691;28;20096;-74
2023/11/24 20:40:40;;;;;;;1999.90;999.90;;;;;;;10.31;64.81;100884.59;10374586;28;20557;-74
2023/11/24 20:45:42;;;;;;;1999.90;999.90;;;;;;;9.72;68.00;100890.31;10374414;28;20053;-74
2023/11/24 20:50:44;;;;;;;1999.90;999.90;;;;;;;9.36;69.69;100966.22;10373347;28;20100;-74
2023/11/24 20:55:47;;;;;;;1999.90;999.90;;;;;;;9.27;68.63;100954.47;10374242;28;20058;-74
2023/11/24 21:00:49;;;;;;;1999.90;999.90;;;;;;;10.22;65.23;100967.91;10374358;28;20049;-74
2023/11/24 21:05:52;;;;;;;1999.90;999.90;;;;;;;9.76;66.61;100993.81;10374190;28;20060;-75
2023/11/24 21:10:54;;;;;;;1999.90;999.90;;;;;;;8.90;67.65;100993.63;10372567;28;20089;-75
2023/11/24 21:15:56;;;;;;;1999.90;999.90;;;;;;;8.63;71.52;100992.34;10381552;28;20064;-75
2023/11/24 21:20:59;;;;;;;1999.90;999.90;;;;;;;8.68;72.84;100977.31;10381898;28;20528;-75
2023/11/24 21:26:01;;;;;;;1999.90;999.90;;;;;;;9.08;71.45;100947.53;10381704;28;20507;-74
2023/11/24 21:31:04;;;;;;;1999.90;999.90;;;;;;;8.93;70.11;100950.88;10381590;28;20045;-74
2023/11/24 21:36:07;;;;;;;1999.90;999.90;;;;;;;9.12;69.26;100948.22;10380216;28;20481;-74
2023/11/24 21:41:10;;;;;;;1999.90;999.90;;;;;;;9.19;69.33;100954.00;10381616;28;20074;-74
2023/11/24 21:46:22;;;;;;;1999.90;999.90;;;;;;;9.54;68.17;100954.00;10379992;28;20054;-74
2023/11/24 21:51:27;;;;;;;1999.90;999.90;;;;;;;9.65;68.35;100960.38;10380921;28;20060;-74
2023/11/24 21:56:30;;;;;;;1999.90;999.90;;;;;;;10.26;66.53;100960.72;10380578;28;20481;-74
2023/11/24 22:01:32;;;;;;;1999.90;999.90;;;;;;;9.34;69.50;100981.13;10379136;28;20510;-74
2023/11/24 22:06:35;;;;;;;1999.90;999.90;;;;;;;9.42;70.21;100987.66;10380036;28;20073;-74